Stations météo

réclame
Mon MeteoGroup
Sint Katelijne-Waver, Belgique (6439): Température de l'air & dewpoint: 19.02.2018 02:00:00 - 25.02.2018 02:00:00 (CET)Sint Katelijne-Waver, Belgique (6439): Vitesse du vent & gusts: 19.02.2018 02:00:00 - 25.02.2018 02:00:00 (CET)Sint Katelijne-Waver, Belgique (6439): Direction du vent: 19.02.2018 02:00:00 - 25.02.2018 02:00:00 (CET)Sint Katelijne-Waver, Belgique (6439): reduced air pressure: 19.02.2018 02:00:00 - 25.02.2018 02:00:00 (CET)Sint Katelijne-Waver, Belgique (6439): Ensoleillement: 19.02.2018 02:00:00 - 25.02.2018 02:00:00 (CET)Sint Katelijne-Waver, Belgique (6439): Quantités de précipitations: 19.02.2018 02:00:00 - 25.02.2018 02:00:00 (CET)
Date & Time tt [°C] td [°C] ff [km/h] ff [knt] fx [km/h] fx [knt] dd ppp [hPa] sd [min] rr [mm]
25.02.2018 02:00:00 - - - - - - - - - -
25.02.2018 01:00:00 -1,3 -9,8 22 12 35 19 ENE 1026,8 0 0,0
25.02.2018 00:00:00 -1,0 -9,3 20 11 34 18 ENE 1026,6 0 0,0
24.02.2018 23:00:00 -0,5 -9,1 21 12 35 19 ENE 1026,3 0 0,0
24.02.2018 22:00:00 -0,1 -8,9 22 12 38 21 ENE 1025,8 0 0,0
24.02.2018 21:00:00 0,3 -8,0 27 14 41 22 ENE 1025,6 0 0,0
24.02.2018 20:00:00 0,9 -7,3 26 14 45 25 ENE 1025,1 0 0,0
24.02.2018 19:00:00 1,4 -7,4 25 14 43 23 ENE 1024,5 2 0,0
24.02.2018 18:00:00 2,1 -7,2 24 13 45 25 ENE 1023,8 56 0,0
24.02.2018 17:00:00 3,9 -8,0 26 14 44 24 ENE 1023,3 60 0,0
24.02.2018 16:00:00 4,4 -9,3 26 14 46 25 ENE 1023,2 60 0,0
24.02.2018 15:00:00 - - - - - - - - - -
24.02.2018 14:00:00 - - - - - - - - - -
24.02.2018 13:00:00 3,4 -11,0 25 14 41 22 E 1023,4 60 0,0
24.02.2018 12:00:00 - - - - - - - - - -
24.02.2018 11:00:00 1,0 -12,2 25 13 43 23 E 1023,7 60 0,0
24.02.2018 10:00:00 -1,0 -11,6 21 11 - - E 1023,6 60 0,0
24.02.2018 09:00:00 -2,7 -11,0 16 9 26 14 ENE 1023,5 30 0,0
24.02.2018 08:00:00 -3,8 -11,3 14 7 29 16 ENE 1023,0 0 0,0
24.02.2018 07:00:00 - - - - - - - - - -
24.02.2018 06:00:00 -3,2 -11,1 14 8 27 14 ENE 1022,2 0 0,0
24.02.2018 05:00:00 -2,8 -10,7 19 10 32 17 ENE 1022,0 0 0,0
24.02.2018 04:00:00 -2,6 -10,1 18 10 29 15 ENE 1021,8 0 0,0
24.02.2018 03:00:00 - - - - - - - - - -
24.02.2018 02:00:00 - - - - - - - - - -
24.02.2018 01:00:00 -1,5 -7,9 14 8 28 15 ENE 1021,6 0 0,0
24.02.2018 00:00:00 -1,1 -7,6 16 9 29 16 ENE 1021,2 0 0,0
23.02.2018 23:00:00 -0,7 -7,9 16 9 27 15 ENE 1021,1 0 0,0
23.02.2018 22:00:00 -0,2 -8,0 16 9 29 16 ENE 1021,1 0 0,0
23.02.2018 21:00:00 0,2 -7,8 16 9 29 16 ENE 1020,8 0 0,0
23.02.2018 20:00:00 0,8 -7,7 16 9 29 15 ENE 1020,8 0 0,0
23.02.2018 19:00:00 1,3 -7,8 14 8 29 16 ENE 1020,7 6 0,0
23.02.2018 18:00:00 - - - - - - - - - -
23.02.2018 17:00:00 3,1 -8,4 20 11 38 20 ENE 1020,4 60 0,0
23.02.2018 16:00:00 3,4 -8,7 23 12 42 23 E 1020,6 60 0,0
23.02.2018 15:00:00 3,1 -8,7 23 12 39 21 E 1020,9 60 0,0
23.02.2018 14:00:00 - - - - - - - - - -
23.02.2018 13:00:00 - - - - - - - - - -
23.02.2018 12:00:00 - - - - - - - - - -
23.02.2018 11:00:00 - - - - - - - - - -
23.02.2018 10:00:00 - - - - - - - - - -
23.02.2018 09:00:00 -1,8 -5,1 11 6 19 10 NE 1023,0 28 0,0
23.02.2018 08:00:00 -2,4 -5,6 10 5 16 9 NE 1023,0 0 0,0
23.02.2018 07:00:00 -2,3 -5,6 11 6 17 9 NE 1022,7 0 0,0
23.02.2018 06:00:00 - - - - - - - - - -
23.02.2018 05:00:00 - - - - - - - - - -
23.02.2018 04:00:00 -1,6 -5,7 13 7 21 11 NE 1022,7 0 0,0
23.02.2018 03:00:00 -1,5 -6,0 13 7 19 10 NE 1023,0 0 0,0
23.02.2018 02:00:00 - - - - - - - - - -
23.02.2018 01:00:00 -0,7 -6,6 11 6 20 11 ENE 1023,3 0 0,0
23.02.2018 00:00:00 -0,1 -6,7 12 6 27 15 ENE 1023,2 0 0,0
22.02.2018 23:00:00 0,5 -6,3 19 10 35 19 ENE 1023,3 0 0,0
22.02.2018 22:00:00 0,8 -6,0 19 11 29 16 ENE 1022,9 0 0,0
22.02.2018 21:00:00 - - - - - - - - - -
22.02.2018 20:00:00 1,9 -5,9 14 8 29 16 NE 1022,9 0 0,0
22.02.2018 19:00:00 2,7 -6,4 18 10 34 19 ENE 1022,6 3 0,0
22.02.2018 18:00:00 3,8 -6,3 19 10 42 23 NE 1022,3 60 0,0
22.02.2018 17:00:00 4,5 -6,2 24 13 45 24 NE 1022,2 60 0,0
22.02.2018 16:00:00 4,9 -5,9 21 11 40 21 NE 1022,2 60 0,0
22.02.2018 15:00:00 4,7 -5,9 24 13 42 23 NE 1022,7 60 0,0
22.02.2018 14:00:00 - - - - - - - - - -
22.02.2018 13:00:00 - - - - - - - - - -
22.02.2018 12:00:00 2,9 -4,8 17 9 33 18 ENE 1024,5 60 0,0
22.02.2018 11:00:00 1,3 -4,6 18 10 26 14 ENE 1024,6 60 0,0
22.02.2018 10:00:00 -0,2 -4,9 16 8 25 14 ENE 1024,8 60 0,0
22.02.2018 09:00:00 - - - - - - - - - -
22.02.2018 08:00:00 - - - - - - - - - -
22.02.2018 07:00:00 - - - - - - - - - -
22.02.2018 06:00:00 -2,3 -5,8 10 5 16 9 NE 1024,0 0 0,0
22.02.2018 05:00:00 -2,1 -5,7 9 5 15 8 NE 1023,8 0 0,0
22.02.2018 04:00:00 -1,8 -5,5 9 5 16 9 NE 1024,0 0 0,0
22.02.2018 03:00:00 -1,5 -5,3 10 5 19 10 NE 1024,3 0 0,0
22.02.2018 02:00:00 - - - - - - - - - -
22.02.2018 01:00:00 -1,1 -5,1 7 4 13 7 NE 1024,9 0 0,0
22.02.2018 00:00:00 -0,5 -4,7 10 5 15 8 NE 1025,1 0 0,0
21.02.2018 23:00:00 -0,1 -4,5 8 4 13 7 NE 1025,4 0 0,0
21.02.2018 22:00:00 0,2 -4,2 9 5 14 7 NNE 1025,4 0 0,0
21.02.2018 21:00:00 0,8 -4,0 7 4 14 8 NNE 1025,2 0 0,0
21.02.2018 20:00:00 1,5 -3,9 7 4 11 6 N 1024,9 0 0,0
21.02.2018 19:00:00 2,6 -3,9 7 4 20 11 NNE 1025,0 0 0,0
21.02.2018 18:00:00 3,7 -4,0 11 6 23 13 NNE 1024,7 44 0,0
21.02.2018 17:00:00 4,7 -4,0 14 8 24 13 NNE 1024,4 60 0,0
21.02.2018 16:00:00 5,0 -4,0 14 7 24 13 NNE 1024,7 60 0,0
21.02.2018 15:00:00 4,7 -4,3 17 9 26 14 NE 1025,4 60 0,0
21.02.2018 14:00:00 - - - - - - - - - -
21.02.2018 13:00:00 3,5 -3,9 14 8 - - NE 1026,5 - -
21.02.2018 12:00:00 2,5 -3,2 14 8 22 12 ENE 1026,9 - -
21.02.2018 11:00:00 0,8 -3,3 11 6 18 10 NE 1026,7 - -
21.02.2018 10:00:00 -0,7 -3,6 11 6 16 9 NNE 1026,8 60 0,0
21.02.2018 09:00:00 -1,8 -4,4 7 4 12 6 NNE 1026,2 9 0,0
21.02.2018 08:00:00 -2,0 -4,7 6 4 12 7 NNE 1026,2 0 0,0
21.02.2018 07:00:00 -1,9 -4,5 7 4 16 9 N 1025,9 0 0,0
21.02.2018 06:00:00 - - - - - - - - - -
21.02.2018 05:00:00 -1,4 -4,3 7 4 12 6 N 1025,2 0 0,0
21.02.2018 04:00:00 -0,8 -4,0 8 4 16 8 N 1025,0 0 0,0
21.02.2018 03:00:00 -0,3 -3,3 10 5 15 8 NE 1024,7 0 0,0
21.02.2018 02:00:00 -0,3 -3,4 9 5 15 8 NNE 1024,5 0 0,0
21.02.2018 01:00:00 - - - - - - - - - -
21.02.2018 00:00:00 0,6 -3,2 8 4 14 8 NNE 1023,7 0 0,0
20.02.2018 23:00:00 1,0 -2,8 7 4 14 7 NNE 1023,1 0 0,0
20.02.2018 22:00:00 2,1 -2,4 9 5 15 8 NNE 1022,4 0 0,0
20.02.2018 21:00:00 2,9 -2,6 7 4 13 7 NNE 1021,8 0 0,0
20.02.2018 20:00:00 - - - - - - - - - -
20.02.2018 19:00:00 3,7 -2,5 7 4 11 6 NNE 1020,5 0 0,0
20.02.2018 18:00:00 4,4 -2,2 8 5 15 8 NNE 1020,0 0 0,0
20.02.2018 17:00:00 4,9 -2,4 8 5 14 8 NNE 1019,4 0 0,0
20.02.2018 16:00:00 5,3 -2,1 8 4 12 6 NNE 1019,1 0 0,0
20.02.2018 15:00:00 5,4 -1,9 6 3 12 6 NE 1019,1 0 0,0
20.02.2018 14:00:00 5,0 -1,6 7 4 11 6 ENE 1019,4 0 0,0
20.02.2018 13:00:00 - - - - - - - - - -
20.02.2018 12:00:00 3,2 -1,1 4 2 9 5 NE 1019,5 0 0,0
20.02.2018 11:00:00 2,2 -1,4 4 2 9 5 NE 1019,7 6 0,0
20.02.2018 10:00:00 1,1 -1,4 6 3 9 5 E 1019,3 8 0,0
20.02.2018 09:00:00 0,3 -1,8 4 2 6 3 NE 1019,1 0 0,0
20.02.2018 08:00:00 0,1 -2,0 4 2 8 4 NNW 1019,1 0 0,0
20.02.2018 07:00:00 0,1 -1,9 7 4 13 7 E 1018,4 0 0,0
20.02.2018 06:00:00 0,5 -1,7 0 0 8 4 N 1018,5 0 0,0
20.02.2018 05:00:00 0,9 -1,2 6 3 9 5 E 1018,3 0 0,0
20.02.2018 04:00:00 1,4 -0,7 4 2 10 5 NE 1018,5 0 0,0
20.02.2018 03:00:00 2,0 -0,2 4 2 5 3 NNE 1018,2 0 0,0
20.02.2018 02:00:00 2,5 0,3 4 2 5 3 ENE 1018,1 0 0,0
20.02.2018 01:00:00 2,7 0,5 4 2 8 4 E 1018,2 0 0,0
20.02.2018 00:00:00 2,7 0,6 5 3 9 5 ESE 1017,8 0 0,0
19.02.2018 23:00:00 2,9 0,7 5 3 8 4 E 1017,8 0 0,0
19.02.2018 22:00:00 3,3 1,0 5 3 7 4 E 1018,1 0 0,0
19.02.2018 21:00:00 3,4 1,0 4 2 8 5 ESE 1018,1 0 0,1
19.02.2018 20:00:00 3,5 0,9 6 3 12 6 SSE 1018,0 0 0,0
19.02.2018 19:00:00 3,8 0,6 7 4 11 6 ESE 1018,2 0 0,2
19.02.2018 18:00:00 4,0 0,3 8 4 12 7 SSE 1017,9 0 0,0
19.02.2018 17:00:00 4,2 0,3 8 4 15 8 SSE 1018,1 0 0,0
19.02.2018 16:00:00 4,3 -0,3 9 5 15 8 SE 1018,6 0 0,0
19.02.2018 15:00:00 4,2 -0,7 9 5 14 8 SE 1018,9 0 0,0
19.02.2018 14:00:00 - - - - - - - - - -
19.02.2018 13:00:00 3,6 -1,5 7 4 13 7 SE 1019,7 0 0,0
19.02.2018 12:00:00 3,1 -1,7 7 4 11 6 SE 1020,1 0 0,0
19.02.2018 11:00:00 2,2 -2,0 7 4 15 8 SSE 1020,3 2 0,0
19.02.2018 10:00:00 1,3 -1,8 10 5 15 8 SSE 1020,5 27 0,0
19.02.2018 09:00:00 0,3 -2,5 8 5 13 7 S 1020,8 0 0,0
19.02.2018 08:00:00 0,2 -2,7 6 3 11 6 SE 1021,3 0 0,0
19.02.2018 07:00:00 - - - - - - - - - -
19.02.2018 06:00:00 0,0 -2,8 6 3 10 5 SSE 1021,2 0 0,0
19.02.2018 05:00:00 - - - - - - - - - -
19.02.2018 04:00:00 0,2 -2,7 6 4 11 6 SE 1022,0 0 0,0
19.02.2018 03:00:00 0,2 -2,6 8 4 13 7 SSE 1022,4 0 0,0
19.02.2018 02:00:00 0,0 -2,6 8 4 10 5 SSE 1023,2 0 0,0

tt = Température de l'air
td = dewpoint
ff = Vitesse du vent
fx = gusts
dd = Direction du vent
ppp = reduced air pressure
sd = Ensoleillement
rr = Quantités de précipitations

stations d'obs. à proximité